Time;durP1;ratioP1;P1;durP2;ratioP2;P2;SDS_P1;SDS_P2;PMS_P1;PMS_P2;Temp;Humidity;BMP_temperature;BMP_pressure;BME280_temperature;BME280_humidity;BME280_pressure;Samples;Min_cycle;Max_cycle;Signal;HPM_P1;HPM_P2
2023/02/24 00:00:31;;;;;;;34.45;12.13;;;27.00;78.70;;;;;;5087157;28;20032;-51
2023/02/24 00:03:09;;;;;;;46.63;12.65;;;26.90;78.70;;;;;;5086387;28;20343;-52
2023/02/24 00:05:38;;;;;;;25.20;11.30;;;26.90;78.80;;;;;;5086711;28;20216;-55
2023/02/24 00:08:05;;;;;;;36.73;11.03;;;26.90;77.60;;;;;;5086745;28;20056;-51
2023/02/24 00:10:32;;;;;;;24.23;9.85;;;26.90;77.30;;;;;;5086320;28;20016;-53
2023/02/24 00:12:59;;;;;;;18.98;8.73;;;26.90;77.30;;;;;;5086329;28;20032;-58
2023/02/24 00:15:26;;;;;;;25.33;10.00;;;27.00;77.30;;;;;;5086565;28;20044;-53
2023/02/24 00:17:52;;;;;;;27.95;10.65;;;27.20;76.70;;;;;;5085704;28;20036;-55
2023/02/24 00:20:19;;;;;;;47.97;12.20;;;27.40;76.00;;;;;;5085926;28;20043;-53
2023/02/24 00:22:46;;;;;;;30.50;10.80;;;27.60;75.60;;;;;;5086659;28;20096;-55
2023/02/24 00:25:13;;;;;;;28.88;10.90;;;27.70;75.10;;;;;;5086740;28;20095;-54
2023/02/24 00:27:41;;;;;;;21.90;9.35;;;27.80;74.70;;;;;;5086412;28;20300;-53
2023/02/24 00:30:10;;;;;;;17.42;8.73;;;27.90;74.50;;;;;;5086281;28;20059;-50
2023/02/24 00:32:36;;;;;;;20.70;8.80;;;28.00;74.20;;;;;;5086454;28;20084;-57
2023/02/24 00:35:04;;;;;;;18.27;8.05;;;28.00;73.90;;;;;;5086367;28;20024;-54
2023/02/24 00:37:31;;;;;;;19.70;8.35;;;28.10;73.80;;;;;;5086323;28;20024;-58
2023/02/24 00:39:57;;;;;;;20.63;8.30;;;28.10;73.40;;;;;;5086344;28;20022;-52
2023/02/24 00:42:24;;;;;;;16.67;8.25;;;28.20;73.10;;;;;;5085761;28;20037;-55
2023/02/24 00:44:52;;;;;;;17.58;7.72;;;28.20;73.10;;;;;;5086853;28;20028;-57
2023/02/24 00:47:21;;;;;;;12.13;7.60;;;28.20;72.80;;;;;;5086341;28;20036;-53
2023/02/24 00:49:50;;;;;;;14.52;7.70;;;28.20;72.70;;;;;;5086457;28;20020;-56
2023/02/24 00:52:19;;;;;;;14.60;6.97;;;28.20;72.40;;;;;;5086177;28;20016;-54
2023/02/24 00:54:48;;;;;;;12.73;7.40;;;28.20;73.00;;;;;;5086612;28;20016;-57
2023/02/24 00:57:17;;;;;;;15.18;7.90;;;28.20;72.40;;;;;;5086025;28;20024;-59
2023/02/24 00:59:46;;;;;;;8.95;7.35;;;28.20;72.30;;;;;;5086531;28;20040;-54
2023/02/24 01:02:16;;;;;;;10.10;7.82;;;28.10;72.10;;;;;;5086041;28;20442;-58
2023/02/24 01:04:43;;;;;;;15.82;8.10;;;28.10;72.10;;;;;;5086190;28;20312;-57
2023/02/24 01:07:11;;;;;;;14.27;7.90;;;28.10;72.00;;;;;;5086051;28;20044;-57
2023/02/24 01:09:40;;;;;;;16.40;8.07;;;28.10;72.00;;;;;;5086140;28;20037;-56
2023/02/24 01:14:54;;;;;;;12.45;8.05;;;28.10;71.90;;;;;;5085779;28;20023;-60
2023/02/24 01:17:21;;;;;;;14.15;7.22;;;28.10;71.80;;;;;;5085517;28;20047;-60
2023/02/24 01:19:49;;;;;;;13.30;8.02;;;28.10;71.60;;;;;;5085401;28;20083;-52
2023/02/24 01:22:17;;;;;;;11.68;7.47;;;28.10;71.60;;;;;;5085569;28;20096;-55
2023/02/24 01:24:44;;;;;;;14.95;7.68;;;28.10;72.00;;;;;;5085948;28;20028;-54
2023/02/24 01:27:18;;;;;;;13.38;7.80;;;28.00;71.40;;;;;;5084083;28;20122;-53
2023/02/24 01:29:46;;;;;;;13.68;8.23;;;28.00;71.20;;;;;;5079532;28;20099;-53
2023/02/24 01:32:17;;;;;;;12.70;7.57;;;27.50;72.20;;;;;;5074754;28;20021;-53
2023/02/24 01:34:44;;;;;;;9.23;7.20;;;27.20;73.20;;;;;;5069880;28;20028;-53
2023/02/24 01:37:15;;;;;;;11.07;7.80;;;26.90;73.80;;;;;;5079634;28;20020;-57
2023/02/24 01:39:42;;;;;;;12.52;7.28;;;26.80;74.20;;;;;;5078220;28;20393;-50
2023/02/24 01:42:18;;;;;;;14.93;7.70;;;26.70;74.60;;;;;;5073799;28;20375;-57
2023/02/24 01:44:44;;;;;;;23.80;8.35;;;26.60;74.50;;;;;;5068937;28;20272;-49
2023/02/24 01:47:12;;;;;;;13.98;8.23;;;26.60;74.50;;;;;;5074142;28;20033;-47
2023/02/24 01:49:44;;;;;;;14.48;8.20;;;26.60;74.80;;;;;;5072976;28;20691;-47
2023/02/24 01:52:24;;;;;;;8.82;7.18;;;26.50;74.80;;;;;;5082195;28;20353;-53
2023/02/24 01:55:21;;;;;;;14.00;7.65;;;26.40;74.80;;;;;;5085391;28;20033;-56
2023/02/24 01:57:51;;;;;;;11.00;7.32;;;26.40;74.50;;;;;;5084753;28;20070;-57
2023/02/24 02:00:44;;;;;;;19.83;8.77;;;26.40;74.30;;;;;;5084617;28;20027;-54
2023/02/24 02:03:34;;;;;;;21.40;8.55;;;26.40;74.40;;;;;;5084020;28;20098;-53
2023/02/24 02:06:06;;;;;;;20.42;8.77;;;26.60;74.00;;;;;;5078052;28;20070;-48
2023/02/24 02:08:38;;;;;;;17.73;8.18;;;26.80;73.40;;;;;;5077418;28;20044;-54
2023/02/24 02:11:09;;;;;;;13.95;7.88;;;27.00;72.60;;;;;;5065464;28;20078;-49
2023/02/24 02:13:39;;;;;;;13.15;7.63;;;27.20;72.10;;;;;;5078660;28;20037;-52
2023/02/24 02:16:40;;;;;;;10.88;7.38;;;27.30;71.80;;;;;;5084476;28;20088;-53
2023/02/24 02:19:58;;;;;;;11.02;7.35;;;27.40;71.30;;;;;;5083955;28;20052;-62
2023/02/24 02:23:02;;;;;;;10.50;7.28;;;27.50;71.10;;;;;;5051379;28;20028;-53
2023/02/24 02:25:37;;;;;;;10.45;6.93;;;27.50;70.60;;;;;;5084128;28;20067;-50
2023/02/24 02:28:52;;;;;;;10.15;7.68;;;27.50;70.30;;;;;;5077149;28;20131;-54
2023/02/24 02:31:28;;;;;;;11.23;7.15;;;27.60;70.30;;;;;;5057816;28;20021;-54
2023/02/24 02:34:26;;;;;;;12.48;7.28;;;27.60;70.00;;;;;;5084295;28;20036;-58
2023/02/24 02:37:14;;;;;;;22.45;7.78;;;27.60;70.20;;;;;;5070240;28;20362;-50
2023/02/24 02:40:25;;;;;;;18.50;7.45;;;27.60;69.90;;;;;;5081532;28;20043;-52
2023/02/24 02:42:57;;;;;;;21.58;7.55;;;27.70;69.90;;;;;;5005855;28;20112;-55
2023/02/24 02:45:49;;;;;;;17.40;7.28;;;27.70;69.80;;;;;;5068976;28;20033;-51
2023/02/24 02:48:23;;;;;;;8.45;7.03;;;27.70;69.60;;;;;;5076008;28;20106;-52
2023/02/24 02:51:10;;;;;;;9.45;6.80;;;27.70;69.60;;;;;;5078893;28;20060;-51
2023/02/24 02:53:39;;;;;;;10.90;6.90;;;27.70;69.70;;;;;;5081421;28;20031;-55
2023/02/24 02:56:27;;;;;;;11.73;7.53;;;27.70;69.50;;;;;;5076771;28;20032;-55
2023/02/24 02:58:55;;;;;;;11.50;6.93;;;27.70;69.50;;;;;;5082237;28;20078;-53
2023/02/24 03:01:27;;;;;;;9.90;6.85;;;27.70;69.30;;;;;;5081199;28;20186;-49
2023/02/24 03:04:00;;;;;;;9.40;7.07;;;27.70;69.40;;;;;;5079827;28;20044;-55
2023/02/24 03:06:45;;;;;;;11.18;7.38;;;27.70;69.40;;;;;;5082495;28;20386;-53
2023/02/24 03:09:28;;;;;;;8.80;6.93;;;27.70;69.10;;;;;;5077779;28;20036;-56
2023/02/24 03:12:09;;;;;;;8.30;6.35;;;27.70;69.20;;;;;;5077346;28;20331;-53
2023/02/24 03:14:38;;;;;;;;;;;27.70;69.10;;;;;;5082482;28;20173;-54
2023/02/24 03:17:13;;;;;;;11.30;6.95;;;27.60;68.80;;;;;;5081258;28;20180;-56
2023/02/24 03:19:42;;;;;;;8.75;7.00;;;27.70;69.00;;;;;;5077962;28;20072;-58
2023/02/24 03:22:18;;;;;;;11.95;7.40;;;27.60;68.90;;;;;;5079988;28;20047;-53
2023/02/24 03:24:45;;;;;;;11.30;8.00;;;27.60;68.50;;;;;;5081656;28;20328;-56
2023/02/24 03:27:35;;;;;;;8.45;7.57;;;27.60;68.40;;;;;;5082230;28;20058;-55
2023/02/24 03:30:09;;;;;;;16.15;8.38;;;27.60;68.90;;;;;;5060910;28;20064;-51
2023/02/24 03:32:49;;;;;;;11.85;7.40;;;27.60;68.30;;;;;;5072406;28;20020;-55
2023/02/24 03:35:28;;;;;;;10.85;7.00;;;27.60;68.40;;;;;;5074577;28;20024;-49
2023/02/24 03:37:58;;;;;;;10.88;7.25;;;27.60;68.30;;;;;;5070157;28;20033;-52
2023/02/24 03:40:33;;;;;;;8.73;6.90;;;27.60;68.30;;;;;;5070240;28;20035;-55
2023/02/24 03:43:15;;;;;;;8.70;7.15;;;27.50;68.30;;;;;;5075373;28;20147;-56
2023/02/24 03:45:42;;;;;;;;;;;27.50;68.20;;;;;;5074484;28;20017;-53
2023/02/24 03:48:12;;;;;;;8.60;7.07;;;27.50;68.20;;;;;;5070052;28;19916;-47
2023/02/24 03:50:41;;;;;;;14.23;6.88;;;27.50;68.20;;;;;;5070770;28;20025;-53
2023/02/24 03:53:07;;;;;;;10.82;6.88;;;27.50;68.20;;;;;;5067285;28;20044;-55
2023/02/24 03:55:43;;;;;;;8.07;6.72;;;27.50;68.20;;;;;;5074039;28;20035;-58
2023/02/24 03:58:16;;;;;;;8.18;6.70;;;27.50;68.20;;;;;;5065787;28;20036;-47
2023/02/24 04:01:12;;;;;;;7.78;6.70;;;27.50;68.20;;;;;;5075113;28;20112;-52
2023/02/24 04:03:46;;;;;;;9.40;7.00;;;27.40;68.20;;;;;;5068083;28;20103;-55
2023/02/24 04:06:40;;;;;;;9.05;7.00;;;27.40;68.10;;;;;;5074782;28;20025;-52
2023/02/24 04:09:12;;;;;;;9.35;6.68;;;27.40;68.10;;;;;;5062004;28;20048;-50
2023/02/24 04:11:50;;;;;;;8.70;6.68;;;27.40;67.90;;;;;;5071106;28;20024;-53
2023/02/24 04:14:46;;;;;;;8.05;6.80;;;27.30;67.80;;;;;;5070068;28;20032;-55
2023/02/24 04:17:41;;;;;;;8.95;6.57;;;27.30;67.70;;;;;;5036616;28;20043;-53
2023/02/24 04:20:19;;;;;;;10.27;6.68;;;27.30;67.50;;;;;;5059156;28;20052;-55
2023/02/24 04:22:53;;;;;;;10.30;6.55;;;27.30;67.30;;;;;;5077739;28;20024;-49
2023/02/24 04:25:25;;;;;;;7.75;6.90;;;27.30;67.20;;;;;;5075614;28;20048;-52
2023/02/24 04:27:57;;;;;;;7.47;6.60;;;27.30;67.00;;;;;;5078210;28;20032;-52
2023/02/24 04:30:30;;;;;;;7.57;6.43;;;27.30;66.80;;;;;;5069546;28;20047;-51
2023/02/24 04:32:56;;;;;;;11.02;6.75;;;27.30;66.60;;;;;;5076935;28;20059;-50
2023/02/24 04:35:26;;;;;;;8.23;6.28;;;27.30;66.50;;;;;;5069644;28;20070;-51
2023/02/24 04:37:53;;;;;;;10.40;6.38;;;27.30;66.50;;;;;;5066616;28;20029;-53
2023/02/24 04:40:21;;;;;;;7.07;6.00;;;27.20;66.30;;;;;;5066592;28;20239;-51
2023/02/24 04:42:50;;;;;;;7.07;5.82;;;27.20;66.20;;;;;;5066413;28;20025;-55
2023/02/24 04:45:28;;;;;;;6.50;5.90;;;27.20;66.70;;;;;;5066375;28;20079;-51
2023/02/24 04:48:01;;;;;;;8.10;5.82;;;27.20;66.00;;;;;;5066356;28;20063;-53
2023/02/24 04:50:34;;;;;;;7.65;5.95;;;27.20;66.00;;;;;;5077251;28;20024;-53
2023/02/24 04:53:08;;;;;;;7.20;5.70;;;27.20;65.80;;;;;;5070086;28;20190;-57
2023/02/24 04:56:10;;;;;;;6.60;6.00;;;27.20;65.60;;;;;;5066174;28;20024;-53
2023/02/24 04:58:38;;;;;;;6.63;5.97;;;27.20;65.70;;;;;;5066519;28;20041;-56
2023/02/24 05:01:09;;;;;;;7.07;5.82;;;27.20;65.40;;;;;;5068918;28;20306;-49
2023/02/24 05:03:40;;;;;;;7.38;6.30;;;27.20;65.30;;;;;;5075414;28;20232;-58
2023/02/24 05:06:12;;;;;;;8.82;6.07;;;27.10;65.10;;;;;;5075707;28;19911;-54
2023/02/24 05:08:39;;;;;;;6.70;6.05;;;27.10;65.00;;;;;;5074636;28;20043;-51
2023/02/24 05:11:06;;;;;;;7.75;6.30;;;27.10;65.10;;;;;;5079278;28;20271;-52
2023/02/24 05:13:36;;;;;;;8.68;6.20;;;27.10;64.90;;;;;;5069457;28;20108;-53
2023/02/24 05:16:07;;;;;;;6.80;6.10;;;27.10;64.90;;;;;;5074056;28;20009;-49
2023/02/24 05:18:37;;;;;;;6.95;5.80;;;27.10;64.80;;;;;;5067191;28;20029;-57
2023/02/24 05:23:57;;;;;;;7.53;6.00;;;27.10;64.60;;;;;;5065917;28;20036;-55
2023/02/24 05:26:24;;;;;;;7.72;6.13;;;27.10;64.60;;;;;;5068397;28;20251;-54
2023/02/24 05:28:53;;;;;;;7.82;5.82;;;27.10;64.50;;;;;;5077159;28;20029;-52
2023/02/24 05:31:22;;;;;;;6.22;5.63;;;27.10;64.60;;;;;;5073136;28;20070;-56
2023/02/24 05:33:56;;;;;;;7.25;5.38;;;27.00;64.40;;;;;;5068388;28;20131;-50
2023/02/24 05:36:24;;;;;;;8.93;5.80;;;27.00;64.80;;;;;;5076821;28;20028;-56
2023/02/24 05:39:11;;;;;;;7.43;5.30;;;27.00;64.00;;;;;;5065601;28;20060;-54
2023/02/24 05:41:40;;;;;;;7.43;5.20;;;27.10;64.00;;;;;;5065244;28;20029;-53
2023/02/24 05:44:11;;;;;;;6.18;5.57;;;27.00;63.70;;;;;;5068089;28;20078;-53
2023/02/24 05:46:41;;;;;;;6.20;5.60;;;27.00;64.00;;;;;;5075533;28;20027;-51
2023/02/24 05:49:13;;;;;;;7.53;5.30;;;27.00;63.50;;;;;;5076958;28;20036;-53
2023/02/24 05:51:42;;;;;;;5.90;5.13;;;27.00;63.30;;;;;;5065092;28;20025;-51
2023/02/24 05:54:13;;;;;;;8.38;5.03;;;27.10;63.30;;;;;;5074875;28;20212;-53
2023/02/24 05:56:44;;;;;;;6.90;5.60;;;27.10;63.10;;;;;;5068380;28;20052;-60
2023/02/24 05:59:16;;;;;;;6.65;5.88;;;27.00;62.90;;;;;;5075592;28;20032;-57
2023/02/24 06:01:46;;;;;;;6.15;5.55;;;27.10;62.80;;;;;;5077677;28;20037;-51
2023/02/24 06:05:03;;;;;;;7.50;5.20;;;27.10;62.70;;;;;;5076471;28;20091;-52
2023/02/24 06:07:03;;;;;;;8.48;5.78;;;27.00;62.60;;;;;;5061090;28;20059;-52
2023/02/24 06:09:29;;;;;;;11.02;5.57;;;27.00;62.50;;;;;;5065022;28;20036;-55
2023/02/24 06:11:56;;;;;;;6.63;5.50;;;27.00;62.50;;;;;;5064610;28;20031;-53
2023/02/24 06:14:23;;;;;;;7.38;5.90;;;27.00;62.50;;;;;;5065028;28;20025;-56
2023/02/24 06:16:49;;;;;;;6.63;5.50;;;27.00;62.40;;;;;;5066898;28;20016;-54
2023/02/24 06:19:16;;;;;;;7.40;5.38;;;27.00;62.40;;;;;;5072963;28;20087;-55
2023/02/24 06:21:43;;;;;;;7.10;5.35;;;27.00;62.30;;;;;;5064626;28;20028;-58
2023/02/24 06:24:17;;;;;;;6.07;5.40;;;27.00;62.30;;;;;;5064904;28;20037;-48
2023/02/24 06:26:44;;;;;;;8.75;5.10;;;27.00;62.30;;;;;;5065353;28;20083;-48
2023/02/24 06:29:16;;;;;;;7.05;5.57;;;26.90;62.20;;;;;;5074451;28;20105;-49
2023/02/24 06:31:43;;;;;;;5.97;5.33;;;27.00;62.30;;;;;;5064409;28;20013;-54
2023/02/24 06:34:11;;;;;;;5.78;5.18;;;26.90;62.20;;;;;;5064572;28;20389;-52
2023/02/24 06:36:38;;;;;;;8.75;5.53;;;26.90;62.00;;;;;;5064214;28;20092;-51
2023/02/24 06:39:12;;;;;;;5.78;4.95;;;26.90;62.00;;;;;;5064130;28;20135;-52
2023/02/24 06:41:38;;;;;;;6.50;5.47;;;26.90;62.00;;;;;;5064133;28;20224;-51
2023/02/24 06:44:05;;;;;;;7.05;5.78;;;26.90;61.80;;;;;;5080515;28;20033;-50
2023/02/24 06:46:32;;;;;;;6.18;5.32;;;26.90;61.80;;;;;;5084096;28;20032;-51
2023/02/24 06:48:58;;;;;;;6.70;5.32;;;26.90;61.50;;;;;;5084383;28;20028;-58
2023/02/24 06:51:28;;;;;;;7.30;5.47;;;26.90;61.60;;;;;;5084159;28;20303;-56
2023/02/24 06:53:59;;;;;;;7.53;5.53;;;26.90;61.30;;;;;;5084262;28;20246;-52
2023/02/24 06:56:26;;;;;;;6.43;5.68;;;26.90;61.40;;;;;;5084271;28;20051;-54
2023/02/24 06:58:55;;;;;;;7.88;5.70;;;26.90;61.20;;;;;;5084280;28;20099;-54
2023/02/24 07:01:27;;;;;;;7.28;5.63;;;26.90;61.20;;;;;;5083847;28;20020;-47
2023/02/24 07:06:39;;;;;;;6.90;5.10;;;26.90;61.10;;;;;;5083824;28;20328;-49
2023/02/24 07:09:12;;;;;;;5.70;4.95;;;26.80;61.10;;;;;;5084037;28;20039;-49
2023/02/24 07:11:41;;;;;;;8.85;5.93;;;26.90;61.20;;;;;;5083902;28;20024;-55
2023/02/24 07:14:10;;;;;;;8.60;5.75;;;26.80;61.20;;;;;;5084065;28;20028;-56
2023/02/24 07:16:40;;;;;;;7.32;5.00;;;26.80;61.30;;;;;;5083789;28;20043;-57
2023/02/24 07:19:12;;;;;;;5.57;5.07;;;26.80;61.30;;;;;;5083700;28;20056;-53
2023/02/24 07:21:39;;;;;;;;;;;26.80;61.20;;;;;;5084173;28;20028;-54
2023/02/24 07:24:07;;;;;;;6.68;5.45;;;26.80;61.10;;;;;;5084135;28;20100;-56
2023/02/24 07:26:34;;;;;;;7.07;4.93;;;26.80;61.10;;;;;;5083613;28;20034;-54
2023/02/24 07:29:05;;;;;;;8.30;5.20;;;26.80;61.00;;;;;;5083867;28;20374;-53
2023/02/24 07:31:33;;;;;;;6.72;5.10;;;26.80;61.00;;;;;;5083697;28;20067;-53
2023/02/24 07:34:00;;;;;;;5.95;4.97;;;26.80;61.00;;;;;;5083763;28;20028;-51
2023/02/24 07:36:37;;;;;;;5.82;5.20;;;26.90;61.00;;;;;;5083656;28;20017;-53
2023/02/24 07:39:08;;;;;;;6.03;5.03;;;26.90;60.80;;;;;;5083929;28;20074;-51
2023/02/24 07:41:35;;;;;;;7.40;5.13;;;26.90;60.90;;;;;;5083702;28;20032;-51
2023/02/24 07:44:02;;;;;;;5.85;5.05;;;26.90;60.70;;;;;;5083852;28;20134;-52
2023/02/24 07:46:29;;;;;;;6.68;5.40;;;26.90;60.70;;;;;;5083457;28;20021;-51
2023/02/24 07:48:58;;;;;;;8.05;4.88;;;26.90;60.80;;;;;;5083553;28;20426;-55
2023/02/24 07:51:26;;;;;;;5.25;4.75;;;26.90;60.80;;;;;;5085127;28;20032;-53
2023/02/24 07:54:00;;;;;;;6.53;5.03;;;26.90;60.90;;;;;;5087653;28;20192;-51
2023/02/24 07:56:29;;;;;;;5.93;5.10;;;26.90;60.80;;;;;;5087259;28;20070;-47
2023/02/24 07:59:02;;;;;;;6.35;5.00;;;26.90;60.80;;;;;;5087618;28;20027;-49
2023/02/24 08:01:37;;;;;;;7.35;5.18;;;26.90;60.90;;;;;;5087382;28;20036;-51
2023/02/24 08:04:07;;;;;;;6.00;5.03;;;26.90;61.00;;;;;;5087433;28;20037;-52
2023/02/24 08:06:44;;;;;;;8.00;5.25;;;26.80;61.00;;;;;;5087020;28;20025;-54
2023/02/24 08:09:45;;;;;;;5.88;5.05;;;26.80;61.20;;;;;;5087243;28;20028;-54
2023/02/24 08:12:08;;;;;;;6.43;5.05;;;26.80;61.40;;;;;;5086921;28;20041;-55
2023/02/24 08:14:43;;;;;;;7.60;5.32;;;26.80;61.90;;;;;;5087432;28;20028;-53
2023/02/24 08:17:15;;;;;;;5.85;5.35;;;26.80;62.30;;;;;;5086714;28;20095;-51
2023/02/24 08:19:42;;;;;;;8.35;5.30;;;26.80;62.80;;;;;;5086853;28;20059;-54
2023/02/24 08:22:22;;;;;;;5.85;5.25;;;26.80;63.10;;;;;;5086785;28;20335;-53
2023/02/24 08:24:53;;;;;;;6.90;5.60;;;26.80;63.40;;;;;;5080477;28;20254;-56
2023/02/24 08:27:23;;;;;;;7.38;5.90;;;26.70;63.60;;;;;;5068359;28;20059;-52
2023/02/24 08:29:56;;;;;;;5.97;5.38;;;26.80;63.90;;;;;;5066993;28;20044;-51
2023/02/24 08:32:42;;;;;;;7.85;6.00;;;26.70;64.20;;;;;;5066620;28;20033;-50
2023/02/24 08:35:16;;;;;;;7.57;5.95;;;26.70;64.70;;;;;;5066363;28;20304;-51
2023/02/24 08:37:52;;;;;;;9.02;5.93;;;26.70;65.00;;;;;;5066441;28;20025;-53
2023/02/24 08:43:15;;;;;;;6.93;6.22;;;26.70;65.30;;;;;;5066459;28;20100;-49
2023/02/24 08:45:51;;;;;;;6.43;5.82;;;26.70;65.30;;;;;;5066193;28;20305;-56
2023/02/24 08:48:36;;;;;;;8.88;5.93;;;26.70;65.00;;;;;;5066087;28;20052;-56
2023/02/24 08:51:07;;;;;;;6.07;5.47;;;26.60;64.80;;;;;;5066539;28;20099;-56
2023/02/24 08:53:39;;;;;;;6.80;5.70;;;26.60;64.70;;;;;;5080400;28;20074;-54
2023/02/24 08:56:11;;;;;;;8.63;6.40;;;26.60;64.70;;;;;;5086102;28;20220;-50
2023/02/24 08:58:55;;;;;;;6.22;5.63;;;26.70;64.90;;;;;;5086215;28;20070;-53
2023/02/24 09:01:25;;;;;;;8.68;6.45;;;26.60;65.10;;;;;;5085713;28;20028;-54
2023/02/24 09:03:57;;;;;;;8.57;6.50;;;26.60;65.20;;;;;;5086237;28;20032;-55
2023/02/24 09:06:46;;;;;;;9.45;6.30;;;26.60;65.30;;;;;;5086036;28;20036;-53
2023/02/24 09:09:19;;;;;;;10.32;5.72;;;26.60;65.50;;;;;;5086271;28;20041;-53
2023/02/24 09:11:54;;;;;;;7.72;6.88;;;26.60;65.50;;;;;;5085721;28;20098;-52
2023/02/24 09:14:25;;;;;;;11.30;6.55;;;26.60;65.70;;;;;;5086302;28;20050;-57
2023/02/24 09:17:01;;;;;;;8.27;6.05;;;26.60;65.80;;;;;;5085799;28;20017;-50
2023/02/24 09:22:39;;;;;;;7.07;5.95;;;26.60;65.80;;;;;;5085725;28;20016;-54
2023/02/24 09:25:17;;;;;;;6.53;5.93;;;26.60;65.80;;;;;;5084951;28;20038;-55
2023/02/24 09:27:50;;;;;;;7.05;5.95;;;26.60;65.60;;;;;;5083079;28;20086;-53
2023/02/24 09:30:37;;;;;;;7.15;5.80;;;26.60;65.30;;;;;;5085413;28;20043;-53
2023/02/24 09:33:20;;;;;;;6.10;5.55;;;26.60;65.70;;;;;;5085161;28;20095;-56
2023/02/24 09:36:08;;;;;;;8.27;5.72;;;26.50;65.10;;;;;;5085410;28;20024;-53
2023/02/24 09:44:40;;;;;;;7.35;5.57;;;26.50;65.00;;;;;;5061525;28;20040;-53
2023/02/24 09:47:50;;;;;;;8.18;5.90;;;26.50;64.80;;;;;;5085213;28;20036;-51
2023/02/24 09:50:19;;;;;;;10.40;5.93;;;26.50;64.70;;;;;;5021769;28;20275;-50
2023/02/24 09:53:12;;;;;;;14.02;6.25;;;26.50;64.60;;;;;;5085243;28;20300;-58
2023/02/24 09:56:03;;;;;;;7.78;6.10;;;26.50;64.40;;;;;;5084945;28;20020;-50
2023/02/24 09:58:53;;;;;;;8.88;5.70;;;26.50;64.50;;;;;;5085042;28;20032;-58
2023/02/24 10:01:35;;;;;;;9.40;5.65;;;26.50;64.40;;;;;;5084742;28;20227;-52
2023/02/24 10:04:51;;;;;;;7.35;6.35;;;26.40;64.40;;;;;;5085390;28;20100;-54
2023/02/24 10:07:35;;;;;;;7.03;5.70;;;26.40;64.40;;;;;;5084720;28;20020;-54
2023/02/24 10:10:26;;;;;;;8.07;6.28;;;26.40;64.60;;;;;;5084563;28;20040;-55
2023/02/24 10:13:28;;;;;;;7.23;6.53;;;26.40;64.80;;;;;;5084475;28;20024;-49
2023/02/24 10:15:58;;;;;;;7.72;5.88;;;26.40;64.80;;;;;;5084896;28;20262;-52
2023/02/24 10:18:37;;;;;;;7.93;6.10;;;26.40;64.80;;;;;;5084267;28;20040;-53
2023/02/24 10:21:47;;;;;;;7.50;6.28;;;26.40;65.00;;;;;;5084843;28;20036;-54
2023/02/24 10:24:47;;;;;;;7.80;6.50;;;26.40;65.10;;;;;;5084914;28;20296;-53
2023/02/24 10:27:23;;;;;;;9.18;6.75;;;26.40;65.30;;;;;;5084466;28;20099;-48
2023/02/24 10:30:09;;;;;;;9.27;6.45;;;26.30;65.40;;;;;;5084641;28;20216;-54
2023/02/24 10:32:57;;;;;;;9.82;6.47;;;26.40;65.60;;;;;;5083503;28;20059;-56
2023/02/24 10:35:32;;;;;;;12.48;6.57;;;26.30;65.70;;;;;;5082478;28;20087;-52
2023/02/24 10:38:05;;;;;;;8.10;6.60;;;26.30;65.80;;;;;;5074021;28;20115;-58
2023/02/24 10:40:47;;;;;;;11.93;6.38;;;26.30;65.80;;;;;;5084314;28;20028;-55
2023/02/24 10:43:28;;;;;;;8.45;6.43;;;26.30;66.00;;;;;;5084353;28;20033;-55
2023/02/24 10:46:06;;;;;;;8.07;6.22;;;26.30;66.20;;;;;;5084313;28;20178;-50
2023/02/24 10:48:37;;;;;;;11.32;7.35;;;26.30;66.30;;;;;;5084290;28;20078;-53
2023/02/24 10:51:18;;;;;;;13.60;7.10;;;26.30;66.40;;;;;;5084239;28;19912;-53
2023/02/24 10:54:20;;;;;;;10.95;6.93;;;26.30;66.70;;;;;;5083989;28;20047;-51
2023/02/24 10:56:43;;;;;;;13.32;7.28;;;26.30;66.70;;;;;;5083826;28;20346;-55
2023/02/24 11:02:05;;;;;;;17.25;7.57;;;26.30;67.10;;;;;;5082953;28;20040;-56
2023/02/24 11:05:03;;;;;;;14.82;7.05;;;26.20;67.00;;;;;;5080987;28;20063;-54
2023/02/24 11:07:52;;;;;;;13.85;7.35;;;26.20;67.20;;;;;;5074881;28;20020;-51
2023/02/24 11:10:25;;;;;;;18.10;7.47;;;26.20;67.30;;;;;;5072326;28;20043;-53
2023/02/24 11:18:35;;;;;;;17.40;7.55;;;26.20;67.70;;;;;;5083905;28;20028;-53
2023/02/24 11:21:12;;;;;;;18.83;7.10;;;26.10;67.80;;;;;;5083650;28;20040;-51
2023/02/24 11:23:53;;;;;;;17.27;6.05;;;25.90;67.50;;;;;;5083872;28;20060;-50
2023/02/24 11:26:31;;;;;;;;;;;25.60;66.60;;;;;;5087058;28;20028;-51
2023/02/24 11:29:02;;;;;;;20.73;8.75;;;25.30;67.60;;;;;;5087181;28;20498;-47
2023/02/24 11:31:35;;;;;;;16.00;8.77;;;25.20;67.90;;;;;;5087616;28;20031;-51
2023/02/24 11:34:33;;;;;;;23.60;7.72;;;25.40;67.90;;;;;;5086447;28;20082;-52
2023/02/24 11:37:24;;;;;;;18.00;8.43;;;25.50;67.60;;;;;;5086230;28;20087;-51
2023/02/24 11:39:55;;;;;;;12.70;6.80;;;25.60;67.00;;;;;;5086259;28;20028;-53
2023/02/24 11:42:44;;;;;;;13.10;7.00;;;25.80;66.40;;;;;;5086354;28;20078;-55
2023/02/24 11:45:40;;;;;;;17.08;6.82;;;25.80;65.90;;;;;;5087479;28;20070;-54
2023/02/24 11:48:21;;;;;;;16.25;7.25;;;25.80;65.60;;;;;;5087718;28;20284;-53
2023/02/24 11:51:09;;;;;;;12.48;6.47;;;25.90;65.50;;;;;;5087334;28;20020;-52
2023/02/24 11:53:41;;;;;;;11.82;5.97;;;25.90;65.40;;;;;;5087530;28;20036;-52
2023/02/24 11:56:27;;;;;;;8.98;5.82;;;26.00;64.70;;;;;;5087369;28;20327;-55
2023/02/24 11:59:11;;;;;;;12.52;6.28;;;26.00;64.60;;;;;;5087568;28;20103;-56
2023/02/24 12:01:47;;;;;;;13.13;6.03;;;26.00;64.30;;;;;;5087117;28;20082;-53
2023/02/24 12:04:33;;;;;;;10.85;6.00;;;26.00;64.00;;;;;;5086986;28;20036;-54
2023/02/24 12:07:26;;;;;;;13.73;6.40;;;26.10;63.90;;;;;;5087219;28;20020;-56
2023/02/24 12:10:19;;;;;;;10.75;5.93;;;26.10;63.80;;;;;;5086578;28;20045;-55
2023/02/24 12:12:57;;;;;;;13.20;6.75;;;26.10;63.80;;;;;;5086550;28;20031;-54
2023/02/24 12:15:32;;;;;;;12.05;6.30;;;26.10;64.00;;;;;;5086238;28;20025;-54
2023/02/24 12:18:00;;;;;;;12.82;6.32;;;26.20;63.90;;;;;;5086766;28;20228;-54
2023/02/24 12:20:43;;;;;;;16.42;6.55;;;26.20;63.90;;;;;;5086586;28;20108;-54
2023/02/24 12:23:27;;;;;;;11.48;6.18;;;26.20;64.00;;;;;;5087002;28;20095;-52
2023/02/24 12:26:12;;;;;;;13.70;6.63;;;26.20;64.30;;;;;;5086627;28;20039;-52
2023/02/24 12:28:57;;;;;;;10.85;6.38;;;26.20;64.50;;;;;;5086696;28;20078;-59
2023/02/24 12:31:53;;;;;;;14.80;6.57;;;26.20;65.00;;;;;;5086847;28;20036;-52
2023/02/24 12:34:51;;;;;;;13.77;6.05;;;26.20;65.40;;;;;;5086917;28;20100;-53
2023/02/24 12:37:36;;;;;;;21.25;6.70;;;26.20;65.80;;;;;;5057240;28;20108;-53
2023/02/24 12:40:12;;;;;;;30.70;8.00;;;26.30;66.10;;;;;;5086606;28;20029;-56
2023/02/24 12:42:52;;;;;;;18.58;7.72;;;26.30;66.20;;;;;;5086559;28;20028;-58
2023/02/24 12:45:38;;;;;;;21.92;8.50;;;26.30;66.20;;;;;;5086458;28;20027;-53
2023/02/24 12:48:04;;;;;;;16.05;7.82;;;26.40;66.50;;;;;;5086270;28;20051;-55
2023/02/24 12:50:48;;;;;;;16.45;7.47;;;26.40;66.60;;;;;;5086324;28;20103;-53
2023/02/24 12:53:40;;;;;;;17.60;7.97;;;26.50;66.90;;;;;;5086526;28;20033;-55
2023/02/24 12:56:37;;;;;;;17.52;7.18;;;26.50;67.20;;;;;;5086126;28;20013;-55
2023/02/24 12:59:05;;;;;;;12.02;7.28;;;26.60;67.60;;;;;;5086487;28;20101;-53
2023/02/24 13:02:05;;;;;;;12.80;7.25;;;26.60;67.80;;;;;;5086121;28;20056;-53
2023/02/24 13:04:51;;;;;;;15.90;7.53;;;26.60;68.20;;;;;;5086310;28;20036;-56
2023/02/24 13:07:39;;;;;;;15.25;7.38;;;26.70;68.40;;;;;;5086041;28;20023;-52
2023/02/24 13:10:24;;;;;;;15.93;7.30;;;26.80;68.90;;;;;;5085797;28;20078;-54
2023/02/24 13:13:25;;;;;;;18.42;7.97;;;26.80;70.20;;;;;;5085815;28;20070;-60
2023/02/24 13:15:54;;;;;;;16.45;7.68;;;26.80;70.20;;;;;;5082687;28;20064;-53
2023/02/24 13:18:29;;;;;;;20.45;8.77;;;26.80;70.40;;;;;;5085792;28;20033;-57
2023/02/24 13:21:23;;;;;;;18.60;9.45;;;26.80;70.60;;;;;;5085662;28;20107;-59
2023/02/24 13:23:59;;;;;;;20.35;10.32;;;26.90;70.80;;;;;;5083593;28;20028;-52
2023/02/24 13:26:28;;;;;;;20.40;10.57;;;26.90;70.80;;;;;;5085555;28;20225;-55
2023/02/24 13:29:08;;;;;;;17.45;10.35;;;26.90;70.60;;;;;;5085804;28;20426;-52
2023/02/24 13:32:04;;;;;;;17.33;9.27;;;26.90;70.20;;;;;;5085525;28;20024;-56
2023/02/24 13:34:41;;;;;;;12.68;8.63;;;27.00;70.10;;;;;;5072696;28;20327;-54
2023/02/24 13:37:09;;;;;;;11.30;8.13;;;27.00;70.00;;;;;;5085239;28;20024;-52
2023/02/24 13:39:40;;;;;;;14.23;8.40;;;27.00;69.90;;;;;;5085784;28;20266;-48
2023/02/24 13:42:29;;;;;;;10.90;8.73;;;27.10;69.80;;;;;;5085329;28;20024;-49
2023/02/24 13:45:18;;;;;;;12.27;7.97;;;27.10;69.80;;;;;;5085261;28;20060;-52
2023/02/24 13:47:58;;;;;;;13.90;8.50;;;27.10;69.80;;;;;;5084839;28;20020;-47
2023/02/24 13:50:34;;;;;;;14.23;8.48;;;27.10;69.70;;;;;;5084542;28;20028;-47
2023/02/24 13:53:22;;;;;;;15.15;8.10;;;27.10;69.30;;;;;;5084940;28;20130;-53
2023/02/24 13:56:14;;;;;;;10.27;7.55;;;27.10;69.00;;;;;;5084996;28;20098;-51
2023/02/24 13:58:49;;;;;;;43.13;10.07;;;27.20;68.60;;;;;;5085219;28;20031;-54